createdAt,value
2023-03-16T00:00:39.870Z,91116.72
2023-03-16T00:03:18.743Z,91116.22
2023-03-16T00:05:53.412Z,91121.88
2023-03-16T00:08:25.797Z,91115.97
2023-03-16T00:10:58.462Z,91119.06
2023-03-16T00:13:31.937Z,91128.88
2023-03-16T00:16:04.571Z,91132.78
2023-03-16T00:18:38.528Z,91139.66
2023-03-16T00:21:13.516Z,91129.09
2023-03-16T00:23:45.812Z,91136.47
2023-03-16T00:26:18.148Z,91133.84
2023-03-16T00:28:53.610Z,91141.84
2023-03-16T00:31:25.948Z,91144.19
2023-03-16T00:33:58.319Z,91147.81
2023-03-16T00:36:37.445Z,91145.97
2023-03-16T00:39:11.080Z,91146.75
2023-03-16T00:41:43.527Z,91145.91
2023-03-16T00:44:15.887Z,91149.81
2023-03-16T00:46:48.236Z,91150.44
2023-03-16T00:49:22.337Z,91158.97
2023-03-16T00:51:55.474Z,91157.69
2023-03-16T00:54:28.078Z,91162.34
2023-03-16T00:57:01.322Z,91161.28
2023-03-16T00:59:37.186Z,91162.38
2023-03-16T01:02:10.180Z,91164.97
2023-03-16T01:04:43.158Z,91159.81
2023-03-16T01:07:16.148Z,91158.25
2023-03-16T01:09:48.424Z,91158.50
2023-03-16T01:12:20.809Z,91153.72
2023-03-16T01:14:53.168Z,91153.16
2023-03-16T01:17:25.675Z,91157.53
2023-03-16T01:19:58.109Z,91159.63
2023-03-16T01:22:33.133Z,91159.59
2023-03-16T01:25:10.468Z,91161.38
2023-03-16T01:27:42.820Z,91161.16
2023-03-16T01:30:15.471Z,91161.66
2023-03-16T01:32:48.093Z,91162.25
2023-03-16T01:35:21.422Z,91165.53
2023-03-16T01:37:55.049Z,91171.44
2023-03-16T01:40:30.752Z,91175.00
2023-03-16T01:43:04.685Z,91176.84
2023-03-16T01:46:17.710Z,91176.03
2023-03-16T01:48:58.113Z,91181.22
2023-03-16T01:51:37.563Z,91169.16
2023-03-16T01:54:19.846Z,91179.03
2023-03-16T01:56:57.953Z,91168.00
2023-03-16T01:59:34.557Z,91186.28
2023-03-16T02:02:08.220Z,91181.41
2023-03-16T02:04:47.970Z,91190.91
2023-03-16T02:07:24.823Z,91187.81
2023-03-16T02:10:01.751Z,91188.31
2023-03-16T02:12:34.116Z,91197.31
2023-03-16T02:15:10.685Z,91193.69
2023-03-16T02:17:45.090Z,91198.56
2023-03-16T02:20:29.247Z,91198.63
2023-03-16T02:23:04.256Z,91206.09
2023-03-16T02:25:47.374Z,91220.09
2023-03-16T02:28:27.930Z,91218.28
2023-03-16T02:31:01.519Z,91217.25
2023-03-16T02:33:35.041Z,91219.81
2023-03-16T02:36:08.485Z,91220.53
2023-03-16T02:38:41.089Z,91218.75
2023-03-16T02:41:15.362Z,91221.81
2023-03-16T02:43:52.350Z,91230.34
2023-03-16T02:46:35.010Z,91240.47
2023-03-16T02:49:15.635Z,91222.81
2023-03-16T02:51:48.342Z,91237.72
2023-03-16T02:54:20.806Z,91234.13
2023-03-16T02:56:53.263Z,91240.25
2023-03-16T02:59:27.105Z,91240.00
2023-03-16T03:02:00.977Z,91240.25
2023-03-16T03:04:33.428Z,91244.66
2023-03-16T03:07:06.052Z,91249.00
2023-03-16T03:09:52.925Z,91248.22
2023-03-16T03:12:25.617Z,91246.69
2023-03-16T03:14:58.264Z,91255.44
2023-03-16T03:17:31.469Z,91255.72
2023-03-16T03:20:12.990Z,91260.06
2023-03-16T03:22:47.753Z,91267.53
2023-03-16T03:25:21.847Z,91263.41
2023-03-16T03:27:54.670Z,91270.34
2023-03-16T03:30:28.871Z,91278.03
2023-03-16T03:33:02.162Z,91271.34
2023-03-16T03:35:35.268Z,91279.06
2023-03-16T03:38:07.796Z,91276.25
2023-03-16T03:40:40.494Z,91273.16
2023-03-16T03:43:12.961Z,91278.06
2023-03-16T03:45:48.048Z,91286.56
2023-03-16T03:48:21.251Z,91288.34
2023-03-16T03:50:53.941Z,91288.84
2023-03-16T03:53:47.369Z,91295.69
2023-03-16T03:56:22.563Z,91297.53
2023-03-16T03:58:55.111Z,91294.22
2023-03-16T04:01:41.908Z,91306.28
2023-03-16T04:04:15.153Z,91305.78
2023-03-16T04:06:47.671Z,91302.19
2023-03-16T04:09:20.060Z,91295.00
2023-03-16T04:11:52.620Z,91312.22
2023-03-16T04:14:25.118Z,91309.13
2023-03-16T04:16:57.665Z,91312.44
2023-03-16T04:19:30.733Z,91306.84
2023-03-16T04:22:03.068Z,91313.75
2023-03-16T04:24:36.320Z,91316.59
2023-03-16T04:27:08.847Z,91315.56
2023-03-16T04:29:41.310Z,91316.84
2023-03-16T04:32:14.590Z,91327.63
2023-03-16T04:34:48.643Z,91326.31
2023-03-16T04:37:22.991Z,91335.78
2023-03-16T04:39:55.283Z,91343.78
2023-03-16T04:42:27.713Z,91334.81
2023-03-16T04:45:00.161Z,91339.72
2023-03-16T04:47:33.648Z,91348.97
2023-03-16T04:50:08.536Z,91344.34
2023-03-16T04:52:41.245Z,91348.19
2023-03-16T04:55:14.021Z,91349.72
2023-03-16T04:57:46.460Z,91364.66
2023-03-16T05:00:19.982Z,91352.56
2023-03-16T05:03:02.094Z,91356.44
2023-03-16T05:05:35.302Z,91360.03
2023-03-16T05:08:08.146Z,91365.44
2023-03-16T05:10:43.900Z,91367.47
2023-03-16T05:13:16.740Z,91370.28
2023-03-16T05:15:53.191Z,91368.22
2023-03-16T05:18:32.495Z,91384.94
2023-03-16T05:21:06.047Z,91381.84
2023-03-16T05:23:51.049Z,91382.09
2023-03-16T05:26:25.491Z,91384.44
2023-03-16T05:28:58.091Z,91379.78
2023-03-16T05:31:32.781Z,91389.00
2023-03-16T05:34:07.232Z,91388.78
2023-03-16T05:36:40.240Z,91388.00
2023-03-16T05:39:17.661Z,91390.31
2023-03-16T05:41:54.332Z,91398.97
2023-03-16T05:44:37.040Z,91398.47
2023-03-16T05:47:29.576Z,91397.44
2023-03-16T05:50:03.811Z,91401.84
2023-03-16T05:52:41.358Z,91408.81
2023-03-16T05:55:20.832Z,91412.16
2023-03-16T05:57:59.904Z,91407.78
2023-03-16T06:00:33.123Z,91417.06
2023-03-16T06:03:16.269Z,91412.16
2023-03-16T06:05:49.016Z,91418.88
2023-03-16T06:08:29.584Z,91419.38
2023-03-16T06:11:08.597Z,91429.41
2023-03-16T06:13:41.485Z,91428.63
2023-03-16T06:16:16.165Z,91425.03
2023-03-16T06:18:48.940Z,91429.69
2023-03-16T06:21:21.484Z,91430.44
2023-03-16T06:23:57.010Z,91442.28
2023-03-16T06:26:30.383Z,91440.25
2023-03-16T06:29:03.385Z,91447.97
2023-03-16T06:31:38.607Z,91444.63
2023-03-16T06:34:12.056Z,91451.81
2023-03-16T06:36:45.663Z,91462.09
2023-03-16T06:39:19.802Z,91465.97
2023-03-16T06:41:55.045Z,91465.69
2023-03-16T06:44:27.549Z,91465.97
2023-03-16T06:47:11.058Z,91475.47
2023-03-16T06:49:43.875Z,91471.84
2023-03-16T06:52:24.048Z,91475.97
2023-03-16T06:54:57.822Z,91483.97
2023-03-16T06:57:31.613Z,91488.59
2023-03-16T07:00:04.594Z,91489.38
2023-03-16T07:02:38.824Z,91492.91
2023-03-16T07:05:13.152Z,91497.28
2023-03-16T07:07:45.774Z,91495.53
2023-03-16T07:10:18.857Z,91497.81
2023-03-16T07:12:51.425Z,91502.44
2023-03-16T07:15:25.883Z,91510.13
2023-03-16T07:18:00.936Z,91511.13
2023-03-16T07:20:34.636Z,91515.50
2023-03-16T07:23:10.668Z,91521.69
2023-03-16T07:25:44.365Z,91518.59
2023-03-16T07:28:16.762Z,91524.53
2023-03-16T07:31:02.885Z,91531.25
2023-03-16T07:33:40.212Z,91533.03
2023-03-16T07:36:16.315Z,91531.50
2023-03-16T07:38:55.177Z,91524.03
2023-03-16T07:41:28.273Z,91528.69
2023-03-16T07:44:13.924Z,91534.50
2023-03-16T07:46:46.232Z,91532.69
2023-03-16T07:49:18.745Z,91538.09
2023-03-16T07:51:53.329Z,91547.38
2023-03-16T07:54:29.244Z,91534.56
2023-03-16T07:57:02.726Z,91544.09
2023-03-16T07:59:43.366Z,91542.56
2023-03-16T08:02:20.835Z,91546.56
2023-03-16T08:04:54.394Z,91542.53
2023-03-16T08:07:26.747Z,91547.22
2023-03-16T08:10:06.011Z,91548.31
2023-03-16T08:12:46.943Z,91551.44
2023-03-16T08:15:20.892Z,91534.50
2023-03-16T08:17:54.946Z,91559.22
2023-03-16T08:20:30.930Z,91555.84
2023-03-16T08:23:03.634Z,91557.13
2023-03-16T08:25:43.032Z,91562.03
2023-03-16T08:28:20.891Z,91569.03
2023-03-16T08:30:55.415Z,91568.81
2023-03-16T08:34:06.514Z,91574.66
2023-03-16T08:36:43.805Z,91574.44
2023-03-16T08:39:17.659Z,91571.00
2023-03-16T08:41:54.332Z,91570.50
2023-03-16T08:44:36.466Z,91583.13
2023-03-16T08:47:09.911Z,91582.53
2023-03-16T08:49:44.138Z,91579.75
2023-03-16T08:52:19.644Z,91575.38
2023-03-16T08:55:02.460Z,91581.53
2023-03-16T08:57:36.779Z,91585.38
2023-03-16T09:00:13.208Z,91581.56
2023-03-16T09:02:46.263Z,91577.94
2023-03-16T09:05:18.713Z,91585.44
2023-03-16T09:07:51.136Z,91574.66
2023-03-16T09:10:23.429Z,91585.00
2023-03-16T09:12:56.010Z,91591.97
2023-03-16T09:15:29.153Z,91590.22
2023-03-16T09:18:03.244Z,91592.78
2023-03-16T09:20:37.093Z,91588.66
2023-03-16T09:23:09.998Z,91598.38
2023-03-16T09:25:42.367Z,91590.41
2023-03-16T09:28:15.177Z,91598.41
2023-03-16T09:30:49.289Z,91599.66
2023-03-16T09:33:22.101Z,91594.53
2023-03-16T09:35:55.204Z,91592.22
2023-03-16T09:38:28.309Z,91601.47
2023-03-16T09:41:04.243Z,91601.47
2023-03-16T09:43:51.788Z,91602.53
2023-03-16T09:46:32.078Z,91608.72
2023-03-16T09:49:05.080Z,91607.97
2023-03-16T09:51:43.977Z,91617.47
2023-03-16T09:54:25.919Z,91604.38
2023-03-16T09:57:00.827Z,91611.53
2023-03-16T09:59:33.150Z,91620.56
2023-03-16T10:02:31.943Z,91609.19
2023-03-16T10:05:09.962Z,91611.25
2023-03-16T10:07:49.810Z,91615.91
2023-03-16T10:10:39.272Z,91611.81
2023-03-16T10:13:22.020Z,91619.31
2023-03-16T10:15:57.004Z,91614.47
2023-03-16T10:18:35.354Z,91615.78
2023-03-16T10:21:12.780Z,91616.78
2023-03-16T10:23:46.180Z,91622.22
2023-03-16T10:26:25.549Z,91621.94
2023-03-16T10:29:00.429Z,91620.44
2023-03-16T10:31:34.682Z,91615.31
2023-03-16T10:34:08.161Z,91615.31
2023-03-16T10:36:43.752Z,91600.63
2023-03-16T10:39:16.869Z,91601.91
2023-03-16T10:41:56.280Z,91619.47
2023-03-16T10:44:29.567Z,91609.88
2023-03-16T10:47:04.103Z,91613.75
2023-03-16T10:49:41.304Z,91605.28
2023-03-16T10:52:19.327Z,91613.53
2023-03-16T10:54:56.118Z,91616.09
2023-03-16T10:57:32.863Z,91614.56
2023-03-16T11:00:13.322Z,91613.47
2023-03-16T11:02:46.950Z,91611.94
2023-03-16T11:05:30.204Z,91614.53
2023-03-16T11:08:09.341Z,91613.25
2023-03-16T11:10:55.091Z,91617.13
2023-03-16T11:13:33.793Z,91619.47
2023-03-16T11:16:20.961Z,91621.22
2023-03-16T11:18:57.278Z,91612.47
2023-03-16T11:21:40.538Z,91620.72
2023-03-16T11:24:22.956Z,91618.69
2023-03-16T11:26:59.980Z,91615.59
2023-03-16T11:29:44.941Z,91616.88
2023-03-16T11:32:21.717Z,91621.47
2023-03-16T11:34:54.090Z,91613.25
2023-03-16T11:37:39.403Z,91620.19
2023-03-16T11:40:28.992Z,91626.63
2023-03-16T11:43:11.356Z,91624.31
2023-03-16T11:45:51.570Z,91618.84
2023-03-16T11:48:31.903Z,91622.69
2023-03-16T11:51:15.251Z,91623.75
2023-03-16T11:53:58.243Z,91615.94
2023-03-16T11:56:34.021Z,91627.25
2023-03-16T11:59:27.098Z,91620.03
2023-03-16T12:02:18.475Z,91624.19
2023-03-16T12:05:03.772Z,91629.38
2023-03-16T12:07:53.466Z,91629.38
2023-03-16T12:10:29.204Z,91641.00
2023-03-16T12:13:19.320Z,91639.47
2023-03-16T12:15:57.344Z,91633.78
2023-03-16T12:18:39.417Z,91636.66
2023-03-16T12:21:14.954Z,91648.50
2023-03-16T12:23:52.594Z,91635.88
2023-03-16T12:26:31.871Z,91645.16
2023-03-16T12:29:13.994Z,91652.38
2023-03-16T12:31:54.667Z,91642.28
2023-03-16T12:34:33.854Z,91651.22
2023-03-16T12:37:31.543Z,91652.66
2023-03-16T12:40:21.682Z,91659.16
2023-03-16T12:43:20.394Z,91663.03
2023-03-16T12:46:01.010Z,91659.78
2023-03-16T12:48:38.476Z,91663.50
2023-03-16T12:51:11.013Z,91660.38
2023-03-16T12:53:46.374Z,91663.19
2023-03-16T12:56:26.263Z,91665.53
2023-03-16T12:59:01.527Z,91659.09
2023-03-16T13:01:41.842Z,91666.53
2023-03-16T13:04:18.583Z,91675.63
2023-03-16T13:07:01.223Z,91671.00
2023-03-16T13:09:36.521Z,91675.91
2023-03-16T13:12:09.817Z,91675.69
2023-03-16T13:14:44.009Z,91671.84
2023-03-16T13:17:29.064Z,91675.72
2023-03-16T13:20:30.241Z,91681.91
2023-03-16T13:23:18.785Z,91681.19
2023-03-16T13:26:04.958Z,91681.41
2023-03-16T13:28:38.522Z,91680.66
2023-03-16T13:31:25.297Z,91685.28
2023-03-16T13:33:59.451Z,91685.28
2023-03-16T13:36:32.784Z,91682.44
2023-03-16T13:39:13.674Z,91682.41
2023-03-16T13:41:56.602Z,91690.69
2023-03-16T13:44:29.522Z,91688.59
2023-03-16T13:47:06.750Z,91689.66
2023-03-16T13:49:43.582Z,91685.53
2023-03-16T13:52:23.748Z,91692.72
2023-03-16T13:54:57.274Z,91690.13
2023-03-16T13:57:35.310Z,91689.59
2023-03-16T14:00:17.405Z,91692.19
2023-03-16T14:02:54.278Z,91685.53
2023-03-16T14:05:29.582Z,91701.50
2023-03-16T14:08:04.159Z,91696.56
2023-03-16T14:10:37.812Z,91701.22
2023-03-16T14:13:24.668Z,91703.78
2023-03-16T14:15:59.578Z,91702.59
2023-03-16T14:18:36.280Z,91704.84
2023-03-16T14:21:14.165Z,91709.75
2023-03-16T14:23:50.931Z,91710.28
2023-03-16T14:26:24.364Z,91714.19
2023-03-16T14:29:02.294Z,91716.03
2023-03-16T14:31:37.636Z,91717.84
2023-03-16T14:34:22.971Z,91724.06
2023-03-16T14:37:05.903Z,91725.63
2023-03-16T14:39:39.807Z,91721.03
2023-03-16T14:42:17.873Z,91724.09
2023-03-16T14:44:50.359Z,91724.03
2023-03-16T14:47:26.040Z,91723.75
2023-03-16T14:50:06.588Z,91730.72
2023-03-16T14:52:39.305Z,91731.75
2023-03-16T14:55:14.341Z,91726.34
2023-03-16T14:57:46.724Z,91739.53
2023-03-16T15:00:21.455Z,91740.00
2023-03-16T15:03:01.018Z,91744.91
2023-03-16T15:05:37.061Z,91747.75
2023-03-16T15:08:16.496Z,91753.16
2023-03-16T15:10:50.078Z,91754.72
2023-03-16T15:13:36.426Z,91742.56
2023-03-16T15:16:13.184Z,91761.34
2023-03-16T15:18:45.845Z,91764.19
2023-03-16T15:21:21.914Z,91764.19
2023-03-16T15:23:57.785Z,91764.16
2023-03-16T15:26:32.041Z,91772.38
2023-03-16T15:29:06.761Z,91776.41
2023-03-16T15:31:39.081Z,91778.16
2023-03-16T15:34:11.480Z,91776.09
2023-03-16T15:36:44.586Z,91782.31
2023-03-16T15:39:23.625Z,91773.91
2023-03-16T15:41:56.232Z,91774.50
2023-03-16T15:44:28.672Z,91784.31
2023-03-16T15:47:02.401Z,91784.84
2023-03-16T15:49:45.077Z,91798.75
2023-03-16T15:52:30.362Z,91792.81
2023-03-16T15:55:07.073Z,91796.50
2023-03-16T15:57:39.513Z,91793.97
2023-03-16T16:00:28.171Z,91797.31
2023-03-16T16:03:02.521Z,91790.38
2023-03-16T16:05:35.581Z,91804.56
2023-03-16T16:08:08.798Z,91814.09
2023-03-16T16:10:42.598Z,91814.09
2023-03-16T16:13:18.939Z,91818.50
2023-03-16T16:15:51.839Z,91814.84
2023-03-16T16:18:29.472Z,91819.75
2023-03-16T16:21:04.493Z,91823.38
2023-03-16T16:23:37.886Z,91824.63
2023-03-16T16:26:20.538Z,91825.59
2023-03-16T16:28:53.420Z,91831.38
2023-03-16T16:31:28.751Z,91837.09
2023-03-16T16:34:01.322Z,91840.00
2023-03-16T16:36:33.620Z,91841.50
2023-03-16T16:39:06.900Z,91849.88
2023-03-16T16:41:40.569Z,91855.72
2023-03-16T16:44:18.517Z,91855.72
2023-03-16T16:46:51.766Z,91854.84
2023-03-16T16:49:27.345Z,91853.69
2023-03-16T16:52:00.402Z,91857.78
2023-03-16T16:54:34.700Z,91861.06
2023-03-16T16:57:17.614Z,91864.22
2023-03-16T16:59:50.282Z,91870.44
2023-03-16T17:02:31.585Z,91867.31
2023-03-16T17:05:04.293Z,91873.94
2023-03-16T17:07:36.769Z,91867.91
2023-03-16T17:10:16.376Z,91873.28
2023-03-16T17:12:49.052Z,91873.56
2023-03-16T17:15:25.180Z,91867.31
2023-03-16T17:18:02.886Z,91864.59
2023-03-16T17:20:35.201Z,91874.88
2023-03-16T17:23:24.265Z,91868.81
2023-03-16T17:25:58.744Z,91886.78
2023-03-16T17:28:38.072Z,91889.63
2023-03-16T17:31:11.631Z,91881.50
2023-03-16T17:33:44.349Z,91890.06
2023-03-16T17:36:17.539Z,91895.09
2023-03-16T17:38:50.327Z,91888.97
2023-03-16T17:41:25.546Z,91885.81
2023-03-16T17:44:05.367Z,91896.28
2023-03-16T17:46:37.689Z,91891.31
2023-03-16T17:49:13.779Z,91892.47
2023-03-16T17:51:47.111Z,91902.38
2023-03-16T17:54:19.524Z,91905.72
2023-03-16T17:56:53.177Z,91901.66
2023-03-16T17:59:26.763Z,91905.00
2023-03-16T18:01:59.161Z,91908.63
2023-03-16T18:04:31.524Z,91903.47
2023-03-16T18:07:05.197Z,91913.38
2023-03-16T18:09:37.495Z,91916.06
2023-03-16T18:12:10.599Z,91911.75
2023-03-16T18:14:43.054Z,91914.19
2023-03-16T18:17:28.084Z,91912.53
2023-03-16T18:20:00.425Z,91922.59
2023-03-16T18:22:32.965Z,91918.97
2023-03-16T18:25:26.414Z,91918.44
2023-03-16T18:28:00.925Z,91912.13
2023-03-16T18:30:34.614Z,91901.53
2023-03-16T18:33:15.893Z,91923.91
2023-03-16T18:35:48.757Z,91914.22
2023-03-16T18:38:28.243Z,91930.31
2023-03-16T18:41:02.573Z,91914.44
2023-03-16T18:43:35.650Z,91916.44
2023-03-16T18:46:20.600Z,91913.47
2023-03-16T18:48:54.720Z,91926.19
2023-03-16T18:51:27.956Z,91919.22
2023-03-16T18:54:00.257Z,91927.81
2023-03-16T18:56:33.231Z,91926.38
2023-03-16T18:59:06.208Z,91920.16
2023-03-16T19:01:41.980Z,91929.16
2023-03-16T19:04:20.748Z,91916.31
2023-03-16T19:06:54.836Z,91929.16
2023-03-16T19:09:28.834Z,91934.31
2023-03-16T19:12:02.833Z,91936.50
2023-03-16T19:14:36.426Z,91936.72
2023-03-16T19:17:09.274Z,91935.19
2023-03-16T19:19:42.109Z,91939.72
2023-03-16T19:22:17.910Z,91952.91
2023-03-16T19:24:53.713Z,91947.84
2023-03-16T19:27:31.786Z,91944.91
2023-03-16T19:30:06.334Z,91949.31
2023-03-16T19:32:38.764Z,91943.97
2023-03-16T19:35:14.404Z,91945.34
2023-03-16T19:37:46.997Z,91948.50
2023-03-16T19:40:22.304Z,91937.56
2023-03-16T19:42:54.588Z,91945.72
2023-03-16T19:45:32.738Z,91944.28
2023-03-16T19:48:12.033Z,91939.13
2023-03-16T19:50:44.605Z,91951.66
2023-03-16T19:53:18.614Z,91915.94
2023-03-16T19:55:52.963Z,91949.31
2023-03-16T19:58:30.627Z,91948.88
2023-03-16T20:01:04.961Z,91956.41
2023-03-16T20:03:37.906Z,91948.78
2023-03-16T20:06:12.681Z,91946.00
2023-03-16T20:08:46.029Z,91943.44
2023-03-16T20:11:24.513Z,91897.28
2023-03-16T20:13:57.694Z,91951.84
2023-03-16T20:16:32.184Z,91958.44
2023-03-16T20:19:14.729Z,91952.59
2023-03-16T20:21:47.095Z,91959.91
2023-03-16T20:24:20.886Z,91967.31
2023-03-16T20:26:53.430Z,91957.88
2023-03-16T20:29:30.478Z,91968.44
2023-03-16T20:32:08.036Z,91967.06
2023-03-16T20:34:40.357Z,91967.81
2023-03-16T20:37:23.346Z,91960.91
2023-03-16T20:39:57.471Z,91972.78
2023-03-16T20:42:31.880Z,91961.00
2023-03-16T20:45:15.714Z,91965.66
2023-03-16T20:47:49.282Z,91965.50
2023-03-16T20:50:25.174Z,91972.59
2023-03-16T20:52:57.547Z,91969.09
2023-03-16T20:55:30.473Z,91970.00
2023-03-16T20:58:03.381Z,91973.59
2023-03-16T21:00:37.140Z,91972.91
2023-03-16T21:03:16.757Z,91975.59
2023-03-16T21:05:49.524Z,91967.13
2023-03-16T21:08:22.237Z,91981.09
2023-03-16T21:10:55.552Z,91981.44
2023-03-16T21:13:30.641Z,91975.13
2023-03-16T21:16:03.686Z,91976.84
2023-03-16T21:18:37.384Z,91979.91
2023-03-16T21:21:14.103Z,91980.19
2023-03-16T21:23:46.875Z,91982.13
2023-03-16T21:26:22.234Z,91981.22
2023-03-16T21:28:56.763Z,91981.03
2023-03-16T21:31:29.258Z,91977.78
2023-03-16T21:34:04.896Z,91984.31
2023-03-16T21:36:37.270Z,91986.38
2023-03-16T21:39:19.019Z,91979.03
2023-03-16T21:41:51.298Z,91982.34
2023-03-16T21:44:23.647Z,91976.38
2023-03-16T21:46:56.088Z,91982.84
2023-03-16T21:49:29.102Z,91982.00
2023-03-16T21:52:01.664Z,91983.72
2023-03-16T21:54:33.997Z,91973.34
2023-03-16T21:57:13.819Z,91967.78
2023-03-16T21:59:46.412Z,91985.47
2023-03-16T22:02:21.955Z,91986.25
2023-03-16T22:04:56.531Z,91988.78
2023-03-16T22:07:28.833Z,91982.78
2023-03-16T22:10:01.968Z,91981.53
2023-03-16T22:12:34.283Z,91983.47
2023-03-16T22:15:08.163Z,91986.41
2023-03-16T22:17:40.504Z,91982.38
2023-03-16T22:20:17.073Z,91976.00
2023-03-16T22:22:50.679Z,91965.50
2023-03-16T22:25:25.848Z,91986.59
2023-03-16T22:27:58.329Z,91977.09
2023-03-16T22:30:30.907Z,91981.28
2023-03-16T22:33:03.823Z,91981.38
2023-03-16T22:35:38.401Z,91984.47
2023-03-16T22:38:12.919Z,91984.56
2023-03-16T22:40:45.326Z,91989.84
2023-03-16T22:43:22.349Z,91993.72
2023-03-16T22:45:56.262Z,92000.50
2023-03-16T22:48:30.155Z,91976.41
2023-03-16T22:51:04.095Z,91998.50
2023-03-16T22:53:40.297Z,92002.84
2023-03-16T22:56:12.770Z,92002.00
2023-03-16T22:58:48.564Z,92003.06
2023-03-16T23:01:23.208Z,92011.25
2023-03-16T23:03:55.957Z,92013.25
2023-03-16T23:06:31.481Z,92017.94
2023-03-16T23:09:04.253Z,92021.59
2023-03-16T23:11:37.988Z,92018.09
2023-03-16T23:14:13.012Z,92018.72
2023-03-16T23:16:46.012Z,92029.66
2023-03-16T23:19:25.025Z,92015.91
2023-03-16T23:22:02.628Z,92032.34
2023-03-16T23:24:35.400Z,92036.03
2023-03-16T23:27:16.206Z,92038.75
2023-03-16T23:29:48.596Z,92030.50
2023-03-16T23:32:21.092Z,92040.22
2023-03-16T23:34:53.322Z,92042.31
2023-03-16T23:37:26.295Z,92040.00
2023-03-16T23:39:58.574Z,92042.78
2023-03-16T23:42:31.374Z,92045.91
2023-03-16T23:45:09.834Z,92053.59
2023-03-16T23:47:42.100Z,92044.00
2023-03-16T23:50:18.042Z,92030.53
2023-03-16T23:52:51.229Z,92054.03
2023-03-16T23:55:24.087Z,92055.75
2023-03-16T23:57:56.365Z,92054.06
